Bookmark and Share
Track history (hours):
 

No1tokuyama

Last reported at 2014-Apr-17 09:05 UTC. Time now 2014-Apr-17 09:43 UTC.
Position N 34°32' E 134°43'.

Length 110 m; draft 5.4 m.

Type: Cargo ship. MMSI: 431400487.

NotesDate/timePositionNaut miles runAvg speedWind from/ knotsBaromVisibWave heightAir tempDewpointWater temp
2014-Apr-17 09:05N 34°32' E 134°43'813.2
2014-Apr-17 08:30N 34°35' E 134°51'1010.5
2014-Apr-17 07:33N 34°36' E 135°03'1212.1
2014-Apr-17 06:33N 34°36' E 135°18'8 7.7
2014-Apr-17 05:33N 34°39' E 135°27'0 0.0
2014-Apr-17 04:29N 34°39' E 135°27'0 0.0
2014-Apr-17 03:29N 34°39' E 135°27'0 0.0
2014-Apr-17 02:23N 34°39' E 135°27'0 0.0
2014-Apr-17 01:29N 34°39' E 135°27'0 0.0
2014-Apr-17 00:29N 34°39' E 135°27'0 0.0
2014-Apr-16 23:33N 34°39' E 135°27'0 0.0
2014-Apr-16 22:33N 34°39' E 135°27'4 3.8
2014-Apr-16 21:33N 34°37' E 135°22'0 0.0
2014-Apr-16 20:08N 34°37' E 135°22'0 0.0
2014-Apr-16 19:32N 34°37' E 135°22'0 0.0
2014-Apr-16 18:20N 34°37' E 135°22'0 0.0
2014-Apr-16 16:32N 34°37' E 135°22'0 0.0
2014-Apr-16 15:26N 34°37' E 135°22'0 0.0
2014-Apr-16 14:32N 34°37' E 135°22'0 0.1
2014-Apr-16 13:26N 34°37' E 135°22'0 0.0
2014-Apr-16 12:20N 34°37' E 135°22'0 0.0
2014-Apr-16 11:32N 34°37' E 135°22'0 0.0
2014-Apr-16 10:26N 34°37' E 135°22'0 0.3
2014-Apr-16 09:33N 34°37' E 135°23'1211.6
2014-Apr-16 08:33N 34°35' E 135°09'1412.8
2014-Apr-16 07:28N 34°34' E 134°52'221 4.5
2014-Apr-14 06:33N 33°57' E 130°28'1211.7
2014-Apr-14 05:33N 33°48' E 130°19'12 1.7
2014-Apr-13 22:33N 33°37' E 130°24'2 2.1
2014-Apr-13 21:33N 33°38' E 130°22'1 1.3
2014-Apr-13 20:26N 33°38' E 130°20'0 0.1
2014-Apr-13 19:29N 33°38' E 130°20'0 0.0
2014-Apr-13 18:32N 33°38' E 130°20'0 0.0
2014-Apr-13 17:32N 33°38' E 130°20'0 0.0
2014-Apr-13 16:29N 33°38' E 130°20'0 0.0
2014-Apr-13 15:32N 33°38' E 130°20'0 0.0
2014-Apr-13 14:32N 33°38' E 130°20'0 0.0
2014-Apr-13 13:32N 33°38' E 130°20'0 0.0
2014-Apr-13 12:26N 33°38' E 130°20'0 0.0
2014-Apr-13 11:29N 33°38' E 130°20'0 0.0
2014-Apr-13 10:32N 33°38' E 130°20'0 0.0
2014-Apr-13 09:23N 33°38' E 130°20'0 0.0
2014-Apr-13 08:32N 33°38' E 130°20'0 0.0
2014-Apr-13 07:32N 33°38' E 130°20'0 0.0
2014-Apr-13 06:32N 33°38' E 130°20'0 0.0
2014-Apr-13 05:20N 33°38' E 130°20'0 0.0
2014-Apr-13 04:32N 33°38' E 130°20'0 0.0
2014-Apr-13 03:23N 33°38' E 130°20'0 0.0
2014-Apr-13 02:32N 33°38' E 130°20'0 0.0
2014-Apr-13 01:33N 33°38' E 130°20'0 0.0
2014-Apr-13 00:32N 33°38' E 130°20'5 5.4
2014-Apr-12 23:33N 33°42' E 130°15'1212.3
2014-Apr-12 22:33N 33°53' E 130°21'220 5.8
2014-Apr-11 08:26N 34°07' E 134°46'25010.8
2014-Apr-10 09:15N 35°06' E 139°41'1013.1
2014-Apr-10 08:32N 35°15' E 139°46'1111.5
2014-Apr-10 07:33N 35°26' E 139°45'4 3.7
2014-Apr-10 06:34N 35°30' E 139°44'0 0.0
2014-Apr-10 05:29N 35°30' E 139°44'0 0.0
2014-Apr-10 04:29N 35°30' E 139°44'0 0.0
2014-Apr-10 03:32N 35°30' E 139°44'0 0.0
2014-Apr-10 02:32N 35°30' E 139°44'0 0.0
2014-Apr-10 01:32N 35°30' E 139°44'0 0.0
2014-Apr-10 00:32N 35°30' E 139°44'0 0.0
2014-Apr-09 23:29N 35°30' E 139°44'1 1.0
2014-Apr-09 22:33N 35°29' E 139°43'7 6.9
2014-Apr-09 21:32N 35°24' E 139°48'2 1.7
2014-Apr-09 20:29N 35°22' E 139°49'0 0.3
2014-Apr-09 19:33N 35°22' E 139°49'1 0.9
2014-Apr-09 18:29N 35°22' E 139°51'0 0.0
2014-Apr-09 17:32N 35°22' E 139°51'0 0.0
2014-Apr-09 16:32N 35°22' E 139°51'0 0.0
2014-Apr-09 15:32N 35°22' E 139°51'0 0.0
2014-Apr-09 14:32N 35°22' E 139°51'0 0.0
2014-Apr-09 13:32N 35°22' E 139°51'0 0.0
2014-Apr-09 12:32N 35°22' E 139°51'0 0.0
2014-Apr-09 11:32N 35°22' E 139°51'0 0.0
2014-Apr-09 10:32N 35°22' E 139°51'0 0.0
2014-Apr-09 09:32N 35°22' E 139°51'0 0.0
2014-Apr-09 08:32N 35°22' E 139°51'0 0.0
2014-Apr-09 07:32N 35°22' E 139°51'0 0.0
2014-Apr-09 06:32N 35°22' E 139°51'0 0.0
2014-Apr-09 05:26N 35°22' E 139°51'1 0.8
2014-Apr-09 04:33N 35°22' E 139°50'1 0.7
2014-Apr-09 03:32N 35°22' E 139°49'0 0.0
2014-Apr-09 02:32N 35°22' E 139°49'0 0.0
2014-Apr-09 01:32N 35°22' E 139°49'0 0.0
2014-Apr-09 00:32N 35°22' E 139°49'0 0.0
2014-Apr-08 23:32N 35°22' E 139°49'0 0.0
2014-Apr-08 22:32N 35°22' E 139°49'0 0.0
2014-Apr-08 21:32N 35°22' E 139°49'0 0.0
2014-Apr-08 20:32N 35°22' E 139°49'0 0.0
2014-Apr-08 19:32N 35°22' E 139°49'0 0.0
2014-Apr-08 18:32N 35°22' E 139°49'0 0.0
2014-Apr-08 17:32N 35°22' E 139°49'0 0.0
2014-Apr-08 16:32N 35°22' E 139°49'0 0.0
2014-Apr-08 15:32N 35°22' E 139°49'0 0.0
2014-Apr-08 14:32N 35°22' E 139°49'0 0.0
2014-Apr-08 13:32N 35°22' E 139°49'0 0.0
2014-Apr-08 12:32N 35°22' E 139°49'0 0.0
2014-Apr-08 11:32N 35°22' E 139°49'0 0.0
2014-Apr-08 10:32N 35°22' E 139°49'0 0.0
2014-Apr-08 09:32N 35°22' E 139°49'7 7.1
2014-Apr-08 08:31N 35°26' E 139°41'0 0.0
2014-Apr-08 07:33N 35°26' E 139°41'0 0.0
2014-Apr-08 06:33N 35°26' E 139°41'0 0.0
2014-Apr-08 05:33N 35°26' E 139°41'0 0.0
2014-Apr-08 04:33N 35°26' E 139°41'0 0.5
2014-Apr-08 03:31N 35°26' E 139°42'5 4.9
2014-Apr-08 02:33N 35°28' E 139°47'3 2.9
2014-Apr-08 01:32N 35°30' E 139°44'0 0.0
2014-Apr-08 00:32N 35°30' E 139°44'0 0.0
2014-Apr-07 23:32N 35°30' E 139°44'0 0.0
2014-Apr-07 22:29N 35°30' E 139°44'2 2.6
2014-Apr-07 21:33N 35°28' E 139°42'5 5.0
2014-Apr-07 20:31N 35°23' E 139°45'0 0.0
2014-Apr-07 19:28N 35°23' E 139°45'0 0.0
2014-Apr-07 17:28N 35°23' E 139°45'0 0.0
2014-Apr-07 16:31N 35°23' E 139°45'0 0.0
2014-Apr-07 15:31N 35°23' E 139°45'0 0.0
2014-Apr-07 14:31N 35°23' E 139°45'0 0.1
2014-Apr-07 13:31N 35°23' E 139°45'0 0.0
2014-Apr-07 12:31N 35°23' E 139°45'2 2.1
2014-Apr-07 11:33N 35°21' E 139°44'1211.5
2014-Apr-07 10:33N 35°10' E 139°46'1212.1
2014-Apr-07 09:33N 35°00' E 139°37'  

Dump ship's entire track history

sailing weather and tide predictions

No1tokuyama — JK5318 — position and weather